Dades meteomassalio
Diari Summary for Febrer 6, 2017 Units:  Metric    English   Both
« Previous Day
Next Day »
Diari Semanal Mensual Anual Personalitzat
  Maxima: Minima: Mijana:
Temperatura: 14.3 °C 6.5 °C 10.4 °C
Rosada: 8.0 °C 0.7 °C 4.5 °C
Humitat: 72 % 62 % 67 %
Velocitat del vent: 62.9 km/h 18.5 km/h 39.4 km/h
Racha vent: 62.9 km/h - -
Vent:- - NW
Pressio: 1024.6 hPa 1019.2 hPa -
Pluja: 0.0 mm    
Historical Graphs
 
 
Tabular Data for Febrer 6, 2017
Time Temperature Dew Point Pressure Wind Wind Speed Wind Gust Humidity Rainfall Rate (Hourly) solar Conditions
00:03 7.2 °C 0.7 °C 1022.2 hPa NW 46.3 km/h 46.3 km/h 63 % 0.0 mm 0.0 W/m2 RA
00:08 7.3 °C 0.7 °C 1022.2 hPa NW 46.3 km/h 46.3 km/h 63 % 0.0 mm 0.0 W/m2 CLR
00:13 7.4 °C 0.8 °C 1021.9 hPa NW 46.3 km/h 46.3 km/h 63 % 0.0 mm 0.0 W/m2 CLR
00:18 7.4 °C 0.8 °C 1021.9 hPa NW 48.1 km/h 48.1 km/h 63 % 0.0 mm 0.0 W/m2 CLR
00:23 7.2 °C 0.8 °C 1021.9 hPa NW 46.3 km/h 46.3 km/h 64 % 0.0 mm 0.0 W/m2 CLR
00:28 7.2 °C 1.1 °C 1022.2 hPa NW 41.8 km/h 41.8 km/h 65 % 0.0 mm 0.0 W/m2 CLR
00:33 7.2 °C 1.1 °C 1022.2 hPa NW 38.9 km/h 38.9 km/h 65 % 0.0 mm 0.0 W/m2 CLR
00:38 7.2 °C 1.1 °C 1022.2 hPa NW 42.6 km/h 42.6 km/h 65 % 0.0 mm 0.0 W/m2 CLR
00:43 7.2 °C 1.2 °C 1022.2 hPa NW 35.4 km/h 35.4 km/h 66 % 0.0 mm 0.0 W/m2 CLR
00:48 7.1 °C 1.1 °C 1022.2 hPa NW 44.4 km/h 44.4 km/h 66 % 0.0 mm 0.0 W/m2 CLR
00:53 7.1 °C 1.2 °C 1022.6 hPa NW 44.4 km/h 44.4 km/h 66 % 0.0 mm 0.0 W/m2 CLR
00:58 7.1 °C 1.2 °C 1022.6 hPa NNW 42.6 km/h 42.6 km/h 66 % 0.0 mm 0.0 W/m2 CLR
01:03 7.1 °C 1.3 °C 1022.6 hPa NW 48.1 km/h 48.1 km/h 67 % 0.0 mm 0.0 W/m2 CLR
01:08 7.0 °C 1.3 °C 1022.6 hPa NW 33.8 km/h 33.8 km/h 67 % 0.0 mm 0.0 W/m2 CLR
01:13 6.8 °C 1.3 °C 1022.6 hPa NW 40.2 km/h 40.2 km/h 68 % 0.0 mm 0.0 W/m2 CLR
01:18 6.9 °C 1.4 °C 1022.6 hPa NW 31.5 km/h 31.5 km/h 68 % 0.0 mm 0.0 W/m2 CLR
01:23 7.0 °C 1.5 °C 1022.6 hPa NW 31.5 km/h 31.5 km/h 68 % 0.0 mm 0.0 W/m2 CLR
01:28 7.0 °C 1.5 °C 1022.6 hPa NW 38.9 km/h 38.9 km/h 68 % 0.0 mm 0.0 W/m2 CLR
01:33 7.1 °C 1.3 °C 1022.6 hPa NW 33.3 km/h 33.3 km/h 67 % 0.0 mm 0.0 W/m2 CLR
01:38 7.1 °C 1.6 °C 1022.6 hPa NW 35.2 km/h 35.2 km/h 68 % 0.0 mm 0.0 W/m2 CLR
01:43 7.0 °C 1.3 °C 1022.2 hPa NW 42.6 km/h 42.6 km/h 67 % 0.0 mm 0.0 W/m2 CLR
01:48 6.9 °C 1.4 °C 1022.6 hPa NW 29.6 km/h 29.6 km/h 68 % 0.0 mm 0.0 W/m2 CLR
01:53 6.9 °C 1.4 °C 1022.6 hPa NW 38.6 km/h 38.6 km/h 68 % 0.0 mm 0.0 W/m2 CLR
01:58 6.9 °C 1.4 °C 1022.6 hPa NW 42.6 km/h 42.6 km/h 68 % 0.0 mm 0.0 W/m2 CLR
02:03 6.9 °C 1.6 °C 1022.6 hPa NW 35.2 km/h 35.2 km/h 69 % 0.0 mm 0.0 W/m2 CLR
02:08 6.9 °C 1.7 °C 1022.6 hPa NW 42.6 km/h 42.6 km/h 69 % 0.0 mm 0.0 W/m2 CLR
02:13 7.1 °C 1.6 °C 1022.9 hPa NW 42.6 km/h 42.6 km/h 68 % 0.0 mm 0.0 W/m2
02:18 7.1 °C 1.7 °C 1022.9 hPa NW 31.5 km/h 31.5 km/h 69 % 0.0 mm 0.0 W/m2 CLR
02:23 7.1 °C 1.8 °C 1022.9 hPa NW 50.0 km/h 50.0 km/h 69 % 0.0 mm 0.0 W/m2 CLR
02:28 7.1 °C 1.7 °C 1022.9 hPa NW 33.3 km/h 33.3 km/h 69 % 0.0 mm 0.0 W/m2 CLR
02:33 7.1 °C 1.8 °C 1022.9 hPa NW 62.9 km/h 62.9 km/h 69 % 0.0 mm 0.0 W/m2
02:38 7.2 °C 1.9 °C 1022.9 hPa NW 55.5 km/h 55.5 km/h 69 % 0.0 mm 0.0 W/m2 CLR
02:43 7.2 °C 1.9 °C 1022.9 hPa NW 55.5 km/h 55.5 km/h 69 % 0.0 mm 0.0 W/m2 CLR
02:48 7.2 °C 2.1 °C 1022.9 hPa NW 54.7 km/h 54.7 km/h 70 % 0.0 mm 0.0 W/m2 CLR
02:53 7.1 °C 2.0 °C 1022.9 hPa NW 46.3 km/h 46.3 km/h 70 % 0.0 mm 0.0 W/m2 CLR
02:58 7.0 °C 1.9 °C 1022.9 hPa NW 40.7 km/h 40.7 km/h 70 % 0.0 mm 0.0 W/m2 CLR
03:03 7.0 °C 2.1 °C 1022.9 hPa NW 46.3 km/h 46.3 km/h 71 % 0.0 mm 0.0 W/m2 CLR
03:08 6.9 °C 1.8 °C 1023.2 hPa NW 44.4 km/h 44.4 km/h 70 % 0.0 mm 0.0 W/m2 CLR
03:14 6.9 °C 2.1 °C 1023.2 hPa NW 37.0 km/h 37.0 km/h 71 % 0.0 mm 0.0 W/m2 CLR
03:19 6.9 °C 2.0 °C 1023.2 hPa NW 40.7 km/h 40.7 km/h 71 % 0.0 mm 0.0 W/m2 CLR
03:24 7.0 °C 2.1 °C 1023.6 hPa NW 53.7 km/h 53.7 km/h 71 % 0.0 mm 0.0 W/m2 CLR
03:29 6.9 °C 2.1 °C 1023.6 hPa NW 40.7 km/h 40.7 km/h 71 % 0.0 mm 0.0 W/m2 CLR
03:34 6.9 °C 2.0 °C 1023.6 hPa NW 41.8 km/h 41.8 km/h 71 % 0.0 mm 0.0 W/m2 CLR
03:39 6.8 °C 2.1 °C 1023.6 hPa NW 37.0 km/h 37.0 km/h 72 % 0.0 mm 0.0 W/m2 CLR
03:44 6.7 °C 2.0 °C 1023.6 hPa NW 32.2 km/h 32.2 km/h 72 % 0.0 mm 0.0 W/m2 CLR
03:49 6.7 °C 2.0 °C 1023.6 hPa NW 35.4 km/h 35.4 km/h 72 % 0.0 mm 0.0 W/m2 CLR
03:54 6.6 °C 1.9 °C 1023.2 hPa NW 31.5 km/h 31.5 km/h 72 % 0.0 mm 0.0 W/m2 CLR
03:59 6.5 °C 1.8 °C 1023.6 hPa NW 38.9 km/h 38.9 km/h 72 % 0.0 mm 0.0 W/m2 CLR
04:04 6.5 °C 1.8 °C 1023.2 hPa WNW 33.3 km/h 33.3 km/h 72 % 0.0 mm 0.0 W/m2 CLR
04:09 6.5 °C 1.8 °C 1023.2 hPa NW 24.1 km/h 24.1 km/h 72 % 0.0 mm 0.0 W/m2 CLR
04:14 6.6 °C 1.7 °C 1023.2 hPa NW 41.8 km/h 41.8 km/h 71 % 0.0 mm 0.0 W/m2 CLR
04:19 6.7 °C 1.8 °C 1023.2 hPa NW 44.4 km/h 44.4 km/h 71 % 0.0 mm 0.0 W/m2 CLR
04:24 6.8 °C 1.9 °C 1023.6 hPa NW 42.6 km/h 42.6 km/h 71 % 0.0 mm 0.0 W/m2 CLR
04:29 6.8 °C 1.7 °C 1023.6 hPa NW 42.6 km/h 42.6 km/h 70 % 0.0 mm 0.0 W/m2 CLR
04:34 6.9 °C 1.8 °C 1023.6 hPa NW 38.9 km/h 38.9 km/h 70 % 0.0 mm 0.0 W/m2 CLR
04:39 6.9 °C 1.8 °C 1023.6 hPa NW 42.6 km/h 42.6 km/h 70 % 0.0 mm 0.0 W/m2 CLR
04:44 6.9 °C 1.8 °C 1023.6 hPa NW 35.2 km/h 35.2 km/h 70 % 0.0 mm 0.0 W/m2 CLR
04:49 6.9 °C 1.8 °C 1023.9 hPa NW 42.6 km/h 42.6 km/h 70 % 0.0 mm 0.0 W/m2 CLR
04:54 7.0 °C 1.9 °C 1023.9 hPa NW 37.0 km/h 37.0 km/h 70 % 0.0 mm 0.0 W/m2 CLR
04:59 7.1 °C 1.7 °C 1023.9 hPa NW 35.2 km/h 35.2 km/h 69 % 0.0 mm 0.0 W/m2 CLR
05:04 7.1 °C 1.7 °C 1023.6 hPa NW 31.5 km/h 31.5 km/h 69 % 0.0 mm 0.0 W/m2 CLR
05:09 7.1 °C 1.8 °C 1023.9 hPa NW 46.3 km/h 46.3 km/h 69 % 0.0 mm 0.0 W/m2 CLR
05:14 7.1 °C 1.8 °C 1023.6 hPa NW 33.3 km/h 33.3 km/h 69 % 0.0 mm 0.0 W/m2 CLR
05:19 7.2 °C 1.7 °C 1023.6 hPa NW 42.6 km/h 42.6 km/h 68 % 0.0 mm 0.0 W/m2 CLR
05:24 7.2 °C 1.7 °C 1023.9 hPa NW 35.2 km/h 35.2 km/h 68 % 0.0 mm 0.0 W/m2 CLR
05:29 7.2 °C 1.7 °C 1023.6 hPa NNW 40.7 km/h 40.7 km/h 68 % 0.0 mm 0.0 W/m2 CLR
05:34 7.2 °C 1.7 °C 1023.6 hPa NNW 35.2 km/h 35.2 km/h 68 % 0.0 mm 0.0 W/m2 CLR
05:39 7.2 °C 1.7 °C 1023.6 hPa NW 48.1 km/h 48.1 km/h 68 % 0.0 mm 0.0 W/m2 CLR
05:44 7.2 °C 1.7 °C 1023.6 hPa NW 50.0 km/h 50.0 km/h 68 % 0.0 mm 0.0 W/m2 CLR
05:49 7.2 °C 1.7 °C 1023.9 hPa NW 53.7 km/h 53.7 km/h 68 % 0.0 mm 0.0 W/m2 CLR
05:54 7.1 °C 1.8 °C 1023.9 hPa NW 44.4 km/h 44.4 km/h 69 % 0.0 mm 0.0 W/m2 CLR
05:59 7.1 °C 1.8 °C 1023.9 hPa NW 46.3 km/h 46.3 km/h 69 % 0.0 mm 0.0 W/m2 CLR
06:04 6.9 °C 1.7 °C 1023.9 hPa NW 37.0 km/h 37.0 km/h 69 % 0.0 mm 0.0 W/m2 CLR
06:09 7.1 °C 1.7 °C 1023.9 hPa NW 40.7 km/h 40.7 km/h 69 % 0.0 mm 0.0 W/m2 CLR
06:14 7.1 °C 1.7 °C 1023.9 hPa NW 42.6 km/h 42.6 km/h 69 % 0.0 mm 0.0 W/m2 CLR
06:19 7.0 °C 1.9 °C 1023.9 hPa NW 35.2 km/h 35.2 km/h 70 % 0.0 mm 0.0 W/m2 CLR
06:24 6.9 °C 1.8 °C 1023.9 hPa NW 42.6 km/h 42.6 km/h 70 % 0.0 mm 0.0 W/m2 CLR
06:29 6.9 °C 1.8 °C 1024.3 hPa NW 35.2 km/h 35.2 km/h 70 % 0.0 mm 0.0 W/m2 CLR
06:34 7.0 °C 2.1 °C 1024.3 hPa NW 35.2 km/h 35.2 km/h 71 % 0.0 mm 0.0 W/m2 CLR
06:39 7.0 °C 1.9 °C 1024.3 hPa NW 38.9 km/h 38.9 km/h 70 % 0.0 mm 0.0 W/m2 CLR
06:44 7.1 °C 1.9 °C 1024.6 hPa NW 35.2 km/h 35.2 km/h 70 % 0.0 mm 0.0 W/m2 CLR
06:49 7.1 °C 2.0 °C 1024.6 hPa NW 29.0 km/h 29.0 km/h 70 % 0.0 mm 0.0 W/m2 CLR
06:54 7.2 °C 2.1 °C 1024.6 hPa NW 22.5 km/h 22.5 km/h 70 % 0.0 mm 0.0 W/m2 CLR
06:59 7.3 °C 1.9 °C 1024.6 hPa NW 33.3 km/h 33.3 km/h 69 % 0.0 mm 0.0 W/m2 CLR
07:04 7.4 °C 2.1 °C 1024.6 hPa NW 25.9 km/h 25.9 km/h 69 % 0.0 mm 0.0 W/m2 CLR
07:09 7.4 °C 2.1 °C 1024.6 hPa NW 27.8 km/h 27.8 km/h 69 % 0.0 mm 0.0 W/m2 CLR
07:14 7.4 °C 1.9 °C 1024.6 hPa NW 22.5 km/h 22.5 km/h 68 % 0.0 mm 0.0 W/m2 CLR
07:19 7.4 °C 1.9 °C 1024.6 hPa NW 38.9 km/h 38.9 km/h 68 % 0.0 mm 0.0 W/m2 CLR
07:24 7.5 °C 1.9 °C 1024.6 hPa NW 35.2 km/h 35.2 km/h 68 % 0.0 mm 0.0 W/m2 CLR
07:29 7.5 °C 1.9 °C 1024.6 hPa NW 31.5 km/h 31.5 km/h 68 % 0.0 mm 0.0 W/m2 CLR
07:34 7.4 °C 1.9 °C 1024.6 hPa NW 24.1 km/h 24.1 km/h 68 % 0.0 mm 0.0 W/m2 CLR
07:39 7.5 °C 2.2 °C 1024.6 hPa NW 31.5 km/h 31.5 km/h 69 % 0.0 mm 0.0 W/m2 CLR
07:44 7.5 °C 2.2 °C 1024.6 hPa NW 35.2 km/h 35.2 km/h 69 % 0.0 mm 0.0 W/m2 CLR
07:49 7.4 °C 2.1 °C 1024.6 hPa NW 38.9 km/h 38.9 km/h 69 % 0.0 mm 0.0 W/m2 CLR
07:54 7.6 °C 2.1 °C 1024.6 hPa NW 42.6 km/h 42.6 km/h 68 % 0.0 mm 0.0 W/m2 CLR
07:59 7.6 °C 1.9 °C 1024.3 hPa NW 35.2 km/h 35.2 km/h 67 % 0.0 mm 0.0 W/m2 CLR
08:04 7.7 °C 1.9 °C 1024.3 hPa NW 40.7 km/h 40.7 km/h 67 % 0.0 mm 0.0 W/m2 OVC
08:09 7.6 °C 1.9 °C 1024.3 hPa NW 43.4 km/h 43.4 km/h 67 % 0.0 mm 5.0 W/m2 OVC
08:14 7.6 °C 1.8 °C 1024.3 hPa NW 31.5 km/h 31.5 km/h 67 % 0.0 mm 5.0 W/m2 OVC
08:19 7.5 °C 1.8 °C 1024.3 hPa NW 35.2 km/h 35.2 km/h 67 % 0.0 mm 9.0 W/m2 BKN
08:24 7.4 °C 1.9 °C 1024.3 hPa NW 38.9 km/h 38.9 km/h 68 % 0.0 mm 14.0 W/m2 BKN
08:29 7.6 °C 2.0 °C 1023.9 hPa NW 42.6 km/h 42.6 km/h 68 % 0.0 mm 19.0 W/m2 BKN
08:34 7.7 °C 1.9 °C 1023.9 hPa NW 44.4 km/h 44.4 km/h 67 % 0.0 mm 26.0 W/m2 BKN
08:39 7.8 °C 2.1 °C 1023.9 hPa WNW 43.4 km/h 43.4 km/h 67 % 0.0 mm 35.0 W/m2 BKN
08:45 7.8 °C 2.1 °C 1023.9 hPa NW 37.0 km/h 37.0 km/h 67 % 0.0 mm 42.0 W/m2 BKN
08:50 7.8 °C 2.1 °C 1023.6 hPa NW 44.4 km/h 44.4 km/h 67 % 0.0 mm 32.0 W/m2 BKN
08:55 7.8 °C 1.9 °C 1023.6 hPa NW 33.3 km/h 33.3 km/h 66 % 0.0 mm 46.0 W/m2 BKN
09:00 7.9 °C 1.9 °C 1023.6 hPa NW 46.7 km/h 46.7 km/h 66 % 0.0 mm 47.0 W/m2 BKN
09:05 7.9 °C 1.9 °C 1023.6 hPa NW 48.1 km/h 48.1 km/h 66 % 0.0 mm 39.0 W/m2 BKN
09:10 7.8 °C 1.9 °C 1023.9 hPa NW 42.6 km/h 42.6 km/h 66 % 0.0 mm 35.0 W/m2 BKN
09:15 7.8 °C 1.8 °C 1023.9 hPa NW 29.6 km/h 29.6 km/h 66 % 0.0 mm 37.0 W/m2 BKN
09:20 7.7 °C 2.0 °C 1023.9 hPa NW 32.2 km/h 32.2 km/h 67 % 0.0 mm 46.0 W/m2 BKN
09:25 7.7 °C 2.0 °C 1023.9 hPa WNW 25.7 km/h 25.7 km/h 67 % 0.0 mm 49.0 W/m2 SCT
09:30 7.8 °C 2.1 °C 1023.9 hPa WNW 25.9 km/h 25.9 km/h 67 % 0.0 mm 127.0 W/m2 SCT
09:35 8.1 °C 2.3 °C 1023.9 hPa WNW 24.1 km/h 24.1 km/h 67 % 0.0 mm 148.0 W/m2 FEW
09:40 8.2 °C 2.7 °C 1023.9 hPa WNW 29.6 km/h 29.6 km/h 68 % 0.0 mm 221.0 W/m2 CLR
09:45 8.4 °C 2.7 °C 1023.9 hPa WNW 40.7 km/h 40.7 km/h 67 % 0.0 mm 225.0 W/m2 CLR
09:50 8.5 °C 2.3 °C 1023.9 hPa WNW 35.2 km/h 35.2 km/h 65 % 0.0 mm 244.0 W/m2 CLR
09:55 8.6 °C 2.6 °C 1023.6 hPa WNW 31.5 km/h 31.5 km/h 66 % 0.0 mm 227.0 W/m2 CLR
10:00 8.6 °C 2.6 °C 1023.6 hPa WNW 42.6 km/h 42.6 km/h 66 % 0.0 mm 239.0 W/m2 CLR
10:05 8.6 °C 2.6 °C 1023.9 hPa NW 40.7 km/h 40.7 km/h 66 % 0.0 mm 265.0 W/m2 CLR
10:10 8.7 °C 2.7 °C 1023.6 hPa WNW 31.5 km/h 31.5 km/h 66 % 0.0 mm 287.0 W/m2 CLR
10:15 8.8 °C 3.1 °C 1023.6 hPa WNW 30.6 km/h 30.6 km/h 67 % 0.0 mm 302.0 W/m2 CLR
10:20 8.9 °C 2.9 °C 1023.6 hPa WNW 35.2 km/h 35.2 km/h 66 % 0.0 mm 309.0 W/m2 CLR
10:25 9.1 °C 2.8 °C 1023.6 hPa WNW 35.2 km/h 35.2 km/h 65 % 0.0 mm 327.0 W/m2 CLR
10:30 9.1 °C 2.9 °C 1023.2 hPa WNW 40.7 km/h 40.7 km/h 65 % 0.0 mm 345.0 W/m2 CLR
10:35 9.2 °C 3.0 °C 1023.2 hPa WNW 42.6 km/h 42.6 km/h 65 % 0.0 mm 360.0 W/m2 CLR
10:40 9.3 °C 2.9 °C 1023.2 hPa WNW 46.3 km/h 46.3 km/h 64 % 0.0 mm 371.0 W/m2 CLR
10:45 9.5 °C 3.2 °C 1023.2 hPa NW 42.6 km/h 42.6 km/h 65 % 0.0 mm 381.0 W/m2 CLR
10:50 9.6 °C 3.1 °C 1022.9 hPa NW 48.1 km/h 48.1 km/h 64 % 0.0 mm 378.0 W/m2 CLR
10:55 9.7 °C 3.4 °C 1022.9 hPa NW 45.1 km/h 45.1 km/h 65 % 0.0 mm 397.0 W/m2 CLR
11:00 9.6 °C 3.3 °C 1023.2 hPa NW 31.5 km/h 31.5 km/h 65 % 0.0 mm 408.0 W/m2 CLR
11:05 9.8 °C 3.5 °C 1022.9 hPa NW 31.5 km/h 31.5 km/h 65 % 0.0 mm 420.0 W/m2 CLR
11:10 9.7 °C 3.2 °C 1022.9 hPa NW 44.4 km/h 44.4 km/h 64 % 0.0 mm 427.0 W/m2 CLR
11:15 9.7 °C 3.4 °C 1022.9 hPa NW 46.3 km/h 46.3 km/h 65 % 0.0 mm 441.0 W/m2 CLR
11:20 9.8 °C 3.6 °C 1022.9 hPa NW 43.4 km/h 43.4 km/h 65 % 0.0 mm 445.0 W/m2 CLR
11:25 9.9 °C 3.6 °C 1022.9 hPa NW 44.4 km/h 44.4 km/h 65 % 0.0 mm 429.0 W/m2 CLR
11:30 9.9 °C 3.6 °C 1022.9 hPa NW 37.0 km/h 37.0 km/h 65 % 0.0 mm 462.0 W/m2 CLR
11:35 10.0 °C 3.7 °C 1022.9 hPa NW 37.0 km/h 37.0 km/h 65 % 0.0 mm 471.0 W/m2 CLR
11:40 10.3 °C 4.0 °C 1023.2 hPa NW 18.5 km/h 18.5 km/h 65 % 0.0 mm 471.0 W/m2 CLR
11:45 10.4 °C 3.7 °C 1023.2 hPa NW 48.1 km/h 48.1 km/h 63 % 0.0 mm 487.0 W/m2 CLR
11:50 10.3 °C 4.1 °C 1023.2 hPa NW 42.6 km/h 42.6 km/h 65 % 0.0 mm 492.0 W/m2 CLR
11:55 10.5 °C 3.9 °C 1023.2 hPa NW 42.6 km/h 42.6 km/h 64 % 0.0 mm 497.0 W/m2 CLR
12:00 10.5 °C 4.2 °C 1022.9 hPa NW 42.6 km/h 42.6 km/h 65 % 0.0 mm 506.0 W/m2 CLR
12:05 10.4 °C 3.9 °C 1022.9 hPa NW 46.3 km/h 46.3 km/h 64 % 0.0 mm 415.0 W/m2 CLR
12:10 10.4 °C 3.9 °C 1022.9 hPa NW 44.4 km/h 44.4 km/h 64 % 0.0 mm 524.0 W/m2 CLR
12:15 10.5 °C 4.2 °C 1022.6 hPa NW 35.2 km/h 35.2 km/h 65 % 0.0 mm 512.0 W/m2 CLR
12:20 10.7 °C 4.2 °C 1022.6 hPa NW 46.3 km/h 46.3 km/h 64 % 0.0 mm 512.0 W/m2 CLR
12:25 10.9 °C 4.6 °C 1022.2 hPa NW 31.5 km/h 31.5 km/h 65 % 0.0 mm 522.0 W/m2 CLR
12:30 11.2 °C 4.6 °C 1022.2 hPa NW 42.6 km/h 42.6 km/h 64 % 0.0 mm 531.0 W/m2 CLR
12:35 11.2 °C 4.9 °C 1022.2 hPa NW 37.0 km/h 37.0 km/h 65 % 0.0 mm 538.0 W/m2 CLR
12:40 11.2 °C 4.9 °C 1021.9 hPa NW 42.6 km/h 42.6 km/h 65 % 0.0 mm 541.0 W/m2 CLR
12:45 11.4 °C 4.8 °C 1021.9 hPa NW 42.6 km/h 42.6 km/h 64 % 0.0 mm 557.0 W/m2 CLR
12:50 11.5 °C 4.9 °C 1021.9 hPa NW 38.9 km/h 38.9 km/h 64 % 0.0 mm 545.0 W/m2 CLR
12:55 11.6 °C 5.0 °C 1021.6 hPa NW 33.3 km/h 33.3 km/h 64 % 0.0 mm 545.0 W/m2 CLR
13:00 11.6 °C 5.2 °C 1021.6 hPa NW 46.7 km/h 46.7 km/h 65 % 0.0 mm 548.0 W/m2 CLR
13:05 11.6 °C 5.0 °C 1021.6 hPa NW 46.3 km/h 46.3 km/h 64 % 0.0 mm 547.0 W/m2 CLR
13:10 11.9 °C 5.1 °C 1021.6 hPa NW 38.9 km/h 38.9 km/h 63 % 0.0 mm 548.0 W/m2 CLR
13:15 12.0 °C 5.6 °C 1021.2 hPa NW 37.0 km/h 37.0 km/h 65 % 0.0 mm 547.0 W/m2 CLR
13:20 12.1 °C 5.5 °C 1020.9 hPa NW 42.6 km/h 42.6 km/h 64 % 0.0 mm 548.0 W/m2 CLR
13:22 12.2 °C 5.6 °C 1020.9 hPa NW 44.4 km/h 44.4 km/h 64 % 0.0 mm 548.0 W/m2 CLR
13:27 12.2 °C 5.6 °C 1020.9 hPa NW 44.4 km/h 44.4 km/h 64 % 0.0 mm 548.0 W/m2 CLR
13:32 12.3 °C 5.5 °C 1020.9 hPa NW 50.0 km/h 50.0 km/h 63 % 0.0 mm 547.0 W/m2 CLR
13:37 12.4 °C 5.6 °C 1020.5 hPa NW 37.0 km/h 37.0 km/h 63 % 0.0 mm 550.0 W/m2 CLR
13:42 12.7 °C 6.1 °C 1020.5 hPa NW 37.0 km/h 37.0 km/h 64 % 0.0 mm 550.0 W/m2 CLR
13:47 12.8 °C 5.7 °C 1020.5 hPa NW 44.4 km/h 44.4 km/h 62 % 0.0 mm 540.0 W/m2 CLR
13:52 13.0 °C 6.1 °C 1020.2 hPa NW 38.9 km/h 38.9 km/h 63 % 0.0 mm 506.0 W/m2 CLR
13:57 13.2 °C 6.3 °C 1020.2 hPa NW 42.6 km/h 42.6 km/h 63 % 0.0 mm 555.0 W/m2 CLR
14:02 13.3 °C 6.4 °C 1020.2 hPa NW 33.8 km/h 33.8 km/h 63 % 0.0 mm 533.0 W/m2 CLR
14:07 13.3 °C 6.2 °C 1020.2 hPa NW 42.6 km/h 42.6 km/h 62 % 0.0 mm 524.0 W/m2 CLR
14:12 13.4 °C 6.3 °C 1020.2 hPa NW 46.3 km/h 46.3 km/h 62 % 0.0 mm 445.0 W/m2 CLR
14:17 13.2 °C 6.3 °C 1019.9 hPa NW 43.4 km/h 43.4 km/h 63 % 0.0 mm 355.0 W/m2 CLR
14:22 13.4 °C 6.3 °C 1019.9 hPa NW 49.9 km/h 49.9 km/h 62 % 0.0 mm 573.0 W/m2 CLR
14:27 13.6 °C 6.7 °C 1019.9 hPa NW 50.0 km/h 50.0 km/h 63 % 0.0 mm 478.0 W/m2 CLR
14:32 13.6 °C 6.4 °C 1019.9 hPa NW 59.5 km/h 59.5 km/h 62 % 0.0 mm 531.0 W/m2 CLR
14:37 13.6 °C 6.7 °C 1019.9 hPa NW 45.1 km/h 45.1 km/h 63 % 0.0 mm 499.0 W/m2 CLR
14:42 13.7 °C 6.7 °C 1019.9 hPa NW 40.7 km/h 40.7 km/h 63 % 0.0 mm 515.0 W/m2 CLR
14:47 13.9 °C 6.8 °C 1019.5 hPa NW 46.3 km/h 46.3 km/h 62 % 0.0 mm 487.0 W/m2 CLR
14:52 13.9 °C 6.8 °C 1019.5 hPa NW 42.6 km/h 42.6 km/h 62 % 0.0 mm 471.0 W/m2 CLR
14:57 14.1 °C 6.9 °C 1019.5 hPa NW 55.5 km/h 55.5 km/h 62 % 0.0 mm 468.0 W/m2 CLR
15:02 14.1 °C 6.9 °C 1019.5 hPa NW 50.0 km/h 50.0 km/h 62 % 0.0 mm 381.0 W/m2 CLR
15:07 13.9 °C 6.9 °C 1019.5 hPa NW 50.0 km/h 50.0 km/h 63 % 0.0 mm 308.0 W/m2 CLR
15:12 13.6 °C 6.9 °C 1019.2 hPa WNW 46.3 km/h 46.3 km/h 64 % 0.0 mm 236.0 W/m2 CLR
15:17 13.6 °C 7.1 °C 1019.2 hPa NW 45.1 km/h 45.1 km/h 65 % 0.0 mm 264.0 W/m2 CLR
15:22 13.5 °C 7.1 °C 1019.5 hPa NW 38.9 km/h 38.9 km/h 65 % 0.0 mm 248.0 W/m2 CLR
15:27 13.5 °C 6.8 °C 1019.5 hPa NW 53.7 km/h 53.7 km/h 64 % 0.0 mm 246.0 W/m2 CLR
15:32 13.6 °C 7.2 °C 1019.5 hPa NW 40.7 km/h 40.7 km/h 65 % 0.0 mm 278.0 W/m2 CLR
15:37 13.8 °C 7.4 °C 1019.5 hPa NW 31.5 km/h 31.5 km/h 65 % 0.0 mm 299.0 W/m2 CLR
15:42 13.9 °C 7.4 °C 1019.5 hPa NW 46.7 km/h 46.7 km/h 65 % 0.0 mm 297.0 W/m2 CLR
15:47 14.0 °C 7.1 °C 1019.5 hPa NW 38.9 km/h 38.9 km/h 63 % 0.0 mm 290.0 W/m2 CLR
15:53 14.1 °C 7.4 °C 1019.5 hPa NW 48.1 km/h 48.1 km/h 64 % 0.0 mm 343.0 W/m2 CLR
15:58 14.3 °C 7.6 °C 1019.2 hPa NW 33.3 km/h 33.3 km/h 64 % 0.0 mm 325.0 W/m2 CLR
16:03 14.3 °C 7.4 °C 1019.5 hPa NW 42.6 km/h 42.6 km/h 63 % 0.0 mm 355.0 W/m2 CLR
16:08 14.3 °C 7.4 °C 1019.5 hPa NW 46.3 km/h 46.3 km/h 63 % 0.0 mm 396.0 W/m2 CLR
16:13 14.3 °C 7.4 °C 1019.5 hPa NW 40.7 km/h 40.7 km/h 63 % 0.0 mm 336.0 W/m2 CLR
16:18 14.3 °C 7.4 °C 1019.5 hPa NW 53.7 km/h 53.7 km/h 63 % 0.0 mm 376.0 W/m2 CLR
16:23 14.3 °C 7.4 °C 1019.5 hPa NW 50.0 km/h 50.0 km/h 63 % 0.0 mm 323.0 W/m2 CLR
16:28 14.3 °C 7.6 °C 1019.5 hPa NW 46.3 km/h 46.3 km/h 64 % 0.0 mm 281.0 W/m2 CLR
16:33 14.3 °C 7.6 °C 1019.5 hPa NW 51.8 km/h 51.8 km/h 64 % 0.0 mm 295.0 W/m2 CLR
16:38 14.2 °C 7.5 °C 1019.5 hPa NW 37.0 km/h 37.0 km/h 64 % 0.0 mm 274.0 W/m2 CLR
16:43 14.1 °C 7.4 °C 1019.5 hPa NW 50.0 km/h 50.0 km/h 64 % 0.0 mm 262.0 W/m2 CLR
16:48 14.1 °C 7.6 °C 1019.5 hPa NW 54.7 km/h 54.7 km/h 65 % 0.0 mm 251.0 W/m2 CLR
16:53 14.1 °C 7.6 °C 1019.5 hPa NW 44.4 km/h 44.4 km/h 65 % 0.0 mm 100.0 W/m2 CLR
16:58 14.0 °C 7.5 °C 1019.5 hPa NW 42.6 km/h 42.6 km/h 65 % 0.0 mm 223.0 W/m2 CLR
17:03 13.9 °C 7.4 °C 1019.5 hPa NW 40.7 km/h 40.7 km/h 65 % 0.0 mm 211.0 W/m2 CLR
17:08 13.9 °C 7.7 °C 1019.5 hPa NW 55.5 km/h 55.5 km/h 66 % 0.0 mm 190.0 W/m2 CLR
17:13 13.9 °C 7.4 °C 1019.5 hPa NW 42.6 km/h 42.6 km/h 65 % 0.0 mm 167.0 W/m2 CLR
17:18 13.9 °C 7.6 °C 1019.2 hPa NW 44.4 km/h 44.4 km/h 66 % 0.0 mm 139.0 W/m2 CLR
17:23 13.9 °C 7.6 °C 1019.5 hPa NW 59.2 km/h 59.2 km/h 66 % 0.0 mm 105.0 W/m2 CLR
17:28 13.8 °C 7.6 °C 1019.5 hPa NW 44.4 km/h 44.4 km/h 66 % 0.0 mm 86.0 W/m2 CLR
17:33 13.7 °C 7.4 °C 1019.5 hPa NW 40.7 km/h 40.7 km/h 66 % 0.0 mm 65.0 W/m2 SCT
17:38 13.5 °C 7.5 °C 1019.5 hPa NW 48.1 km/h 48.1 km/h 67 % 0.0 mm 26.0 W/m2 BKN
17:43 13.4 °C 7.4 °C 1019.5 hPa NW 50.0 km/h 50.0 km/h 67 % 0.0 mm 21.0 W/m2 BKN
17:48 13.3 °C 7.6 °C 1019.9 hPa NW 35.2 km/h 35.2 km/h 68 % 0.0 mm 21.0 W/m2 BKN
17:53 13.4 °C 7.6 °C 1019.9 hPa NW 53.7 km/h 53.7 km/h 68 % 0.0 mm 19.0 W/m2 BKN
17:58 13.3 °C 7.6 °C 1019.9 hPa NW 40.7 km/h 40.7 km/h 68 % 0.0 mm 18.0 W/m2 BKN
18:03 13.3 °C 7.6 °C 1019.9 hPa NW 51.8 km/h 51.8 km/h 68 % 0.0 mm 14.0 W/m2 BKN
18:08 13.4 °C 7.6 °C 1019.9 hPa NW 42.6 km/h 42.6 km/h 68 % 0.0 mm 14.0 W/m2 BKN
18:13 13.4 °C 7.7 °C 1019.9 hPa NW 37.0 km/h 37.0 km/h 68 % 0.0 mm 9.0 W/m2 BKN
18:18 13.4 °C 7.6 °C 1019.9 hPa NW 40.7 km/h 40.7 km/h 68 % 0.0 mm 7.0 W/m2 BKN
18:23 13.3 °C 7.6 °C 1020.2 hPa NW 57.4 km/h 57.4 km/h 68 % 0.0 mm 0.0 W/m2 OVC
18:28 13.4 °C 7.6 °C 1020.2 hPa NW 44.4 km/h 44.4 km/h 68 % 0.0 mm 0.0 W/m2 OVC
18:33 13.3 °C 7.6 °C 1020.2 hPa NW 40.7 km/h 40.7 km/h 68 % 0.0 mm 0.0 W/m2 CLR
18:38 13.3 °C 7.6 °C 1020.5 hPa NW 46.3 km/h 46.3 km/h 68 % 0.0 mm 0.0 W/m2 CLR
18:43 13.4 °C 7.6 °C 1020.5 hPa NW 38.9 km/h 38.9 km/h 68 % 0.0 mm 0.0 W/m2 CLR
18:48 13.4 °C 7.6 °C 1020.5 hPa NW 48.3 km/h 48.3 km/h 68 % 0.0 mm 0.0 W/m2 CLR
18:53 13.3 °C 7.8 °C 1020.9 hPa NW 42.6 km/h 42.6 km/h 69 % 0.0 mm 0.0 W/m2 CLR
18:58 13.4 °C 7.8 °C 1020.9 hPa NW 31.5 km/h 31.5 km/h 69 % 0.0 mm 0.0 W/m2 CLR
19:03 13.3 °C 7.9 °C 1020.9 hPa NW 51.5 km/h 51.5 km/h 70 % 0.0 mm 0.0 W/m2 CLR
19:08 13.3 °C 8.0 °C 1020.9 hPa NW 50.0 km/h 50.0 km/h 70 % 0.0 mm 0.0 W/m2 CLR
19:13 13.4 °C 7.8 °C 1020.9 hPa NW 53.7 km/h 53.7 km/h 69 % 0.0 mm 0.0 W/m2 CLR
19:18 13.4 °C 8.0 °C 1020.9 hPa NW 45.1 km/h 45.1 km/h 70 % 0.0 mm 0.0 W/m2 CLR
19:23 13.3 °C 7.9 °C 1020.9 hPa NW 38.9 km/h 38.9 km/h 70 % 0.0 mm 0.0 W/m2 CLR
19:28 13.2 °C 7.8 °C 1020.9 hPa WNW 38.9 km/h 38.9 km/h 70 % 0.0 mm 0.0 W/m2 CLR
19:29 13.2 °C 7.8 °C 1020.9 hPa NW 38.9 km/h 38.9 km/h 70 % 0.0 mm 0.0 W/m2 CLR
19:34 13.2 °C 7.8 °C 1020.9 hPa NW 42.6 km/h 42.6 km/h 70 % 0.0 mm 0.0 W/m2 CLR
19:39 13.0 °C 7.7 °C 1020.9 hPa WNW 40.7 km/h 40.7 km/h 70 % 0.0 mm 0.0 W/m2 CLR
19:44 12.9 °C 7.6 °C 1020.9 hPa WNW 40.7 km/h 40.7 km/h 70 % 0.0 mm 0.0 W/m2 CLR
19:49 12.9 °C 7.6 °C 1020.9 hPa WNW 44.4 km/h 44.4 km/h 70 % 0.0 mm 0.0 W/m2 CLR
19:54 12.8 °C 7.5 °C 1021.2 hPa WNW 33.3 km/h 33.3 km/h 70 % 0.0 mm 0.0 W/m2 CLR
19:59 12.8 °C 7.4 °C 1021.2 hPa WNW 35.4 km/h 35.4 km/h 70 % 0.0 mm 0.0 W/m2 CLR
20:04 12.8 °C 7.4 °C 1021.6 hPa WNW 33.8 km/h 33.8 km/h 70 % 0.0 mm 0.0 W/m2 CLR
20:09 12.8 °C 7.5 °C 1021.6 hPa West 35.2 km/h 35.2 km/h 70 % 0.0 mm 0.0 W/m2 CLR
20:14 12.8 °C 7.5 °C 1021.6 hPa West 42.6 km/h 42.6 km/h 70 % 0.0 mm 0.0 W/m2 CLR
20:19 12.9 °C 7.6 °C 1021.6 hPa West 42.6 km/h 42.6 km/h 70 % 0.0 mm 0.0 W/m2 CLR
20:24 12.9 °C 7.6 °C 1021.6 hPa West 31.5 km/h 32.0 km/h 70 % 0.0 mm 0.0 W/m2 CLR
20:29 12.9 °C 7.6 °C 1021.6 hPa West 50.0 km/h 50.0 km/h 70 % 0.0 mm 0.0 W/m2 CLR
20:34 12.8 °C 7.5 °C 1021.2 hPa WNW 37.0 km/h 37.0 km/h 70 % 0.0 mm 0.0 W/m2 CLR
20:39 12.9 °C 7.6 °C 1021.2 hPa WNW 42.6 km/h 42.6 km/h 70 % 0.0 mm 0.0 W/m2 CLR
20:44 13.0 °C 7.7 °C 1021.2 hPa WNW 40.7 km/h 40.7 km/h 70 % 0.0 mm 0.0 W/m2 CLR
20:49 13.1 °C 7.5 °C 1021.6 hPa West 35.2 km/h 35.2 km/h 69 % 0.0 mm 0.0 W/m2 CLR
20:55 13.2 °C 7.6 °C 1021.6 hPa WNW 50.0 km/h 50.0 km/h 69 % 0.0 mm 0.0 W/m2 CLR
21:00 13.3 °C 7.5 °C 1021.6 hPa West 38.9 km/h 38.9 km/h 68 % 0.0 mm 0.0 W/m2 CLR
21:05 13.4 °C 7.7 °C 1021.6 hPa West 51.8 km/h 51.8 km/h 68 % 0.0 mm 0.0 W/m2 CLR
21:10 13.3 °C 7.6 °C 1021.6 hPa WNW 37.0 km/h 37.0 km/h 68 % 0.0 mm 0.0 W/m2 CLR
21:15 13.3 °C 7.6 °C 1021.9 hPa WNW 31.5 km/h 34.6 km/h 68 % 0.0 mm 0.0 W/m2 CLR
21:20 13.3 °C 7.5 °C 1021.9 hPa WNW 29.6 km/h 29.6 km/h 68 % 0.0 mm 0.0 W/m2 CLR
21:25 13.2 °C 7.7 °C 1021.9 hPa WNW 24.1 km/h 24.1 km/h 69 % 0.0 mm 0.0 W/m2 CLR
21:30 13.3 °C 7.6 °C 1021.9 hPa WNW 33.3 km/h 33.3 km/h 68 % 0.0 mm 0.0 W/m2 CLR
21:35 13.3 °C 7.6 °C 1022.2 hPa WNW 22.2 km/h 22.2 km/h 68 % 0.0 mm 0.0 W/m2 CLR
21:40 13.4 °C 7.4 °C 1022.2 hPa West 25.9 km/h 25.9 km/h 67 % 0.0 mm 0.0 W/m2 CLR
21:45 13.3 °C 7.3 °C 1022.2 hPa West 18.5 km/h 18.5 km/h 67 % 0.0 mm 0.0 W/m2 CLR
21:50 13.3 °C 7.5 °C 1022.2 hPa West 25.9 km/h 25.9 km/h 68 % 0.0 mm 0.0 W/m2 CLR
21:55 13.3 °C 7.5 °C 1022.2 hPa West 24.1 km/h 24.1 km/h 68 % 0.0 mm 0.0 W/m2 CLR
22:00 13.3 °C 7.5 °C 1022.2 hPa West 18.5 km/h 18.5 km/h 68 % 0.0 mm 0.0 W/m2 CLR
22:05 13.2 °C 7.4 °C 1022.2 hPa West 18.5 km/h 18.5 km/h 68 % 0.0 mm 0.0 W/m2 CLR
22:10 13.2 °C 7.4 °C 1022.2 hPa West 24.1 km/h 24.1 km/h 68 % 0.0 mm 0.0 W/m2 CLR
22:15 13.3 °C 7.5 °C 1022.2 hPa West 25.9 km/h 25.9 km/h 68 % 0.0 mm 0.0 W/m2 CLR
22:20 13.3 °C 7.5 °C 1022.2 hPa West 29.0 km/h 29.0 km/h 68 % 0.0 mm 0.0 W/m2 CLR
22:25 13.2 °C 7.4 °C 1022.2 hPa West 22.2 km/h 22.2 km/h 68 % 0.0 mm 0.0 W/m2 CLR
22:30 13.1 °C 7.3 °C 1022.2 hPa West 20.9 km/h 20.9 km/h 68 % 0.0 mm 0.0 W/m2 CLR
22:35 13.1 °C 7.6 °C 1022.2 hPa West 20.4 km/h 20.4 km/h 69 % 0.0 mm 0.0 W/m2 CLR
22:40 13.1 °C 7.6 °C 1022.2 hPa West 22.2 km/h 22.2 km/h 69 % 0.0 mm 0.0 W/m2 CLR
22:45 13.2 °C 7.6 °C 1022.2 hPa West 24.1 km/h 24.1 km/h 69 % 0.0 mm 0.0 W/m2 CLR
22:50 13.2 °C 7.6 °C 1022.2 hPa West 30.6 km/h 30.6 km/h 69 % 0.0 mm 0.0 W/m2 CLR
22:55 13.2 °C 7.7 °C 1021.9 hPa West 27.8 km/h 27.8 km/h 69 % 0.0 mm 0.0 W/m2 CLR
23:00 13.3 °C 7.5 °C 1021.9 hPa West 24.1 km/h 24.1 km/h 68 % 0.0 mm 0.0 W/m2 CLR
23:05 13.6 °C 7.6 °C 1021.9 hPa West 35.2 km/h 35.2 km/h 67 % 0.0 mm 0.0 W/m2 CLR
23:10 13.7 °C 7.4 °C 1021.9 hPa West 29.6 km/h 29.6 km/h 66 % 0.0 mm 0.0 W/m2 CLR
23:15 13.7 °C 7.5 °C 1021.9 hPa West 31.5 km/h 31.5 km/h 66 % 0.0 mm 0.0 W/m2 CLR
23:20 13.7 °C 7.4 °C 1021.9 hPa West 42.6 km/h 42.6 km/h 66 % 0.0 mm 0.0 W/m2 CLR
23:25 13.7 °C 7.4 °C 1021.9 hPa West 37.0 km/h 37.0 km/h 66 % 0.0 mm 0.0 W/m2 CLR
23:30 13.6 °C 7.6 °C 1021.9 hPa West 31.5 km/h 31.5 km/h 67 % 0.0 mm 0.0 W/m2 CLR
23:35 13.6 °C 7.6 °C 1021.9 hPa West 35.2 km/h 35.2 km/h 67 % 0.0 mm 0.0 W/m2 CLR
23:40 13.6 °C 7.6 °C 1021.9 hPa West 33.8 km/h 33.8 km/h 67 % 0.0 mm 0.0 W/m2 CLR
23:45 13.7 °C 7.4 °C 1021.9 hPa West 31.5 km/h 31.5 km/h 66 % 0.0 mm 0.0 W/m2 CLR
23:50 13.5 °C 7.5 °C 1021.9 hPa WNW 22.2 km/h 22.2 km/h 67 % 0.0 mm 0.0 W/m2 CLR
23:55 13.3 °C 7.3 °C 1021.9 hPa WNW 25.7 km/h 25.7 km/h 67 % 0.0 mm 0.0 W/m2 CLR
Lo Temps de Massalio
Compliments of Weather Underground - 1.25 mb